sensor_id;sensor_type;location;lat;lon;timestamp;P1;durP1;ratioP1;P2;durP2;ratioP2
22622;SDS011;11478;51.094;7.030;2022-11-03T00:00:23;11.25;;;3.03;;
22622;SDS011;11478;51.094;7.030;2022-11-03T00:05:42;16.20;;;3.53;;
22622;SDS011;11478;51.094;7.030;2022-11-03T00:13:40;16.90;;;3.95;;
22622;SDS011;11478;51.094;7.030;2022-11-03T00:19:46;16.80;;;3.47;;
22622;SDS011;11478;51.094;7.030;2022-11-03T00:22:12;14.05;;;3.25;;
22622;SDS011;11478;51.094;7.030;2022-11-03T00:24:39;13.23;;;3.00;;
22622;SDS011;11478;51.094;7.030;2022-11-03T00:27:05;15.65;;;3.17;;
22622;SDS011;11478;51.094;7.030;2022-11-03T00:29:33;12.27;;;2.95;;
22622;SDS011;11478;51.094;7.030;2022-11-03T00:32:00;16.38;;;3.20;;
22622;SDS011;11478;51.094;7.030;2022-11-03T00:37:02;15.80;;;3.50;;
22622;SDS011;11478;51.094;7.030;2022-11-03T00:39:31;13.35;;;3.33;;
22622;SDS011;11478;51.094;7.030;2022-11-03T00:42:00;16.60;;;3.55;;
22622;SDS011;11478;51.094;7.030;2022-11-03T00:44:29;14.07;;;2.80;;
22622;SDS011;11478;51.094;7.030;2022-11-03T00:46:55;13.18;;;2.75;;
22622;SDS011;11478;51.094;7.030;2022-11-03T00:49:21;11.98;;;3.45;;
22622;SDS011;11478;51.094;7.030;2022-11-03T00:51:48;11.88;;;3.13;;
22622;SDS011;11478;51.094;7.030;2022-11-03T00:54:13;14.65;;;3.25;;
22622;SDS011;11478;51.094;7.030;2022-11-03T00:56:43;12.93;;;2.90;;
22622;SDS011;11478;51.094;7.030;2022-11-03T00:59:12;15.88;;;3.85;;
22622;SDS011;11478;51.094;7.030;2022-11-03T01:01:47;17.88;;;3.30;;
22622;SDS011;11478;51.094;7.030;2022-11-03T01:04:14;13.18;;;3.05;;
22622;SDS011;11478;51.094;7.030;2022-11-03T01:07:00;12.88;;;3.45;;
22622;SDS011;11478;51.094;7.030;2022-11-03T01:09:34;12.98;;;3.05;;
22622;SDS011;11478;51.094;7.030;2022-11-03T01:12:03;15.20;;;3.00;;
22622;SDS011;11478;51.094;7.030;2022-11-03T01:14:35;14.55;;;3.55;;
22622;SDS011;11478;51.094;7.030;2022-11-03T01:17:11;13.30;;;3.42;;
22622;SDS011;11478;51.094;7.030;2022-11-03T01:19:41;15.02;;;3.50;;
22622;SDS011;11478;51.094;7.030;2022-11-03T01:25:05;12.18;;;2.78;;
22622;SDS011;11478;51.094;7.030;2022-11-03T01:27:35;18.80;;;3.80;;
22622;SDS011;11478;51.094;7.030;2022-11-03T01:30:01;14.80;;;3.22;;
22622;SDS011;11478;51.094;7.030;2022-11-03T01:32:27;13.70;;;3.22;;
22622;SDS011;11478;51.094;7.030;2022-11-03T01:34:53;14.73;;;3.40;;
22622;SDS011;11478;51.094;7.030;2022-11-03T01:37:19;14.32;;;3.30;;
22622;SDS011;11478;51.094;7.030;2022-11-03T01:39:45;13.20;;;3.35;;
22622;SDS011;11478;51.094;7.030;2022-11-03T01:42:11;13.50;;;3.25;;
22622;SDS011;11478;51.094;7.030;2022-11-03T01:44:40;11.20;;;2.83;;
22622;SDS011;11478;51.094;7.030;2022-11-03T01:49:46;10.95;;;3.10;;
22622;SDS011;11478;51.094;7.030;2022-11-03T01:52:20;15.77;;;3.30;;
22622;SDS011;11478;51.094;7.030;2022-11-03T01:54:52;10.18;;;2.97;;
22622;SDS011;11478;51.094;7.030;2022-11-03T01:57:24;12.80;;;3.40;;
22622;SDS011;11478;51.094;7.030;2022-11-03T01:59:56;12.35;;;3.17;;
22622;SDS011;11478;51.094;7.030;2022-11-03T02:02:24;16.20;;;2.92;;
22622;SDS011;11478;51.094;7.030;2022-11-03T02:04:51;14.85;;;3.15;;
22622;SDS011;11478;51.094;7.030;2022-11-03T02:07:32;11.98;;;3.22;;
22622;SDS011;11478;51.094;7.030;2022-11-03T02:12:40;14.15;;;2.78;;
22622;SDS011;11478;51.094;7.030;2022-11-03T02:15:09;12.63;;;3.00;;
22622;SDS011;11478;51.094;7.030;2022-11-03T02:17:37;12.88;;;3.00;;
22622;SDS011;11478;51.094;7.030;2022-11-03T02:20:09;9.88;;;2.80;;
22622;SDS011;11478;51.094;7.030;2022-11-03T02:25:50;16.83;;;3.03;;
22622;SDS011;11478;51.094;7.030;2022-11-03T02:28:25;13.35;;;3.35;;
22622;SDS011;11478;51.094;7.030;2022-11-03T02:36:34;12.93;;;2.92;;
22622;SDS011;11478;51.094;7.030;2022-11-03T02:39:15;11.77;;;2.65;;
22622;SDS011;11478;51.094;7.030;2022-11-03T02:41:49;13.10;;;3.03;;
22622;SDS011;11478;51.094;7.030;2022-11-03T02:44:20;10.93;;;3.03;;
22622;SDS011;11478;51.094;7.030;2022-11-03T02:46:51;15.38;;;3.03;;
22622;SDS011;11478;51.094;7.030;2022-11-03T02:49:24;10.85;;;2.83;;
22622;SDS011;11478;51.094;7.030;2022-11-03T02:52:03;12.50;;;3.25;;
22622;SDS011;11478;51.094;7.030;2022-11-03T02:54:36;14.05;;;2.90;;
22622;SDS011;11478;51.094;7.030;2022-11-03T02:57:08;12.93;;;2.60;;
22622;SDS011;11478;51.094;7.030;2022-11-03T02:59:59;12.73;;;2.63;;
22622;SDS011;11478;51.094;7.030;2022-11-03T03:02:40;11.50;;;3.05;;
22622;SDS011;11478;51.094;7.030;2022-11-03T03:05:17;12.45;;;2.83;;
22622;SDS011;11478;51.094;7.030;2022-11-03T03:07:51;14.77;;;3.00;;
22622;SDS011;11478;51.094;7.030;2022-11-03T03:10:22;13.07;;;3.03;;
22622;SDS011;11478;51.094;7.030;2022-11-03T03:12:54;12.00;;;2.90;;
22622;SDS011;11478;51.094;7.030;2022-11-03T03:15:35;15.23;;;3.13;;
22622;SDS011;11478;51.094;7.030;2022-11-03T03:21:14;12.85;;;2.85;;
22622;SDS011;11478;51.094;7.030;2022-11-03T03:27:17;17.20;;;2.80;;
22622;SDS011;11478;51.094;7.030;2022-11-03T03:29:50;16.42;;;3.03;;
22622;SDS011;11478;51.094;7.030;2022-11-03T03:32:39;11.73;;;3.08;;
22622;SDS011;11478;51.094;7.030;2022-11-03T03:35:25;12.45;;;3.00;;
22622;SDS011;11478;51.094;7.030;2022-11-03T03:37:56;12.88;;;2.80;;
22622;SDS011;11478;51.094;7.030;2022-11-03T03:40:35;13.18;;;3.03;;
22622;SDS011;11478;51.094;7.030;2022-11-03T03:43:14;13.57;;;3.40;;
22622;SDS011;11478;51.094;7.030;2022-11-03T03:45:43;15.48;;;3.65;;
22622;SDS011;11478;51.094;7.030;2022-11-03T03:48:13;15.80;;;3.22;;
22622;SDS011;11478;51.094;7.030;2022-11-03T03:53:14;11.70;;;2.92;;
22622;SDS011;11478;51.094;7.030;2022-11-03T03:55:49;12.88;;;3.08;;
22622;SDS011;11478;51.094;7.030;2022-11-03T03:58:26;12.57;;;3.28;;
22622;SDS011;11478;51.094;7.030;2022-11-03T04:01:04;11.35;;;2.60;;
22622;SDS011;11478;51.094;7.030;2022-11-03T04:03:32;11.80;;;3.22;;
22622;SDS011;11478;51.094;7.030;2022-11-03T04:05:58;15.35;;;3.05;;
22622;SDS011;11478;51.094;7.030;2022-11-03T04:08:28;16.65;;;2.97;;
22622;SDS011;11478;51.094;7.030;2022-11-03T04:10:54;11.23;;;2.67;;
22622;SDS011;11478;51.094;7.030;2022-11-03T04:19:16;14.10;;;2.65;;
22622;SDS011;11478;51.094;7.030;2022-11-03T04:22:02;14.20;;;3.17;;
22622;SDS011;11478;51.094;7.030;2022-11-03T04:25:02;13.93;;;2.65;;
22622;SDS011;11478;51.094;7.030;2022-11-03T04:30:20;12.70;;;3.17;;
22622;SDS011;11478;51.094;7.030;2022-11-03T04:32:49;16.20;;;3.25;;
22622;SDS011;11478;51.094;7.030;2022-11-03T04:35:40;12.60;;;2.78;;
22622;SDS011;11478;51.094;7.030;2022-11-03T04:38:29;15.18;;;3.17;;
22622;SDS011;11478;51.094;7.030;2022-11-03T04:40:58;14.95;;;3.70;;
22622;SDS011;11478;51.094;7.030;2022-11-03T04:43:33;15.50;;;4.05;;
22622;SDS011;11478;51.094;7.030;2022-11-03T04:46:11;19.85;;;5.88;;
22622;SDS011;11478;51.094;7.030;2022-11-03T04:48:40;16.60;;;4.43;;
22622;SDS011;11478;51.094;7.030;2022-11-03T04:51:14;12.25;;;3.25;;
22622;SDS011;11478;51.094;7.030;2022-11-03T04:56:30;16.02;;;3.30;;
22622;SDS011;11478;51.094;7.030;2022-11-03T04:59:00;10.95;;;2.80;;
22622;SDS011;11478;51.094;7.030;2022-11-03T05:01:35;10.18;;;2.95;;
22622;SDS011;11478;51.094;7.030;2022-11-03T05:04:07;18.50;;;6.28;;
22622;SDS011;11478;51.094;7.030;2022-11-03T05:06:43;13.95;;;3.25;;
22622;SDS011;11478;51.094;7.030;2022-11-03T05:09:19;15.73;;;5.32;;
22622;SDS011;11478;51.094;7.030;2022-11-03T05:11:53;15.95;;;3.50;;
22622;SDS011;11478;51.094;7.030;2022-11-03T05:14:29;14.52;;;4.07;;
22622;SDS011;11478;51.094;7.030;2022-11-03T05:16:57;15.65;;;3.20;;
22622;SDS011;11478;51.094;7.030;2022-11-03T05:19:31;15.18;;;3.40;;
22622;SDS011;11478;51.094;7.030;2022-11-03T05:22:03;11.90;;;3.10;;
22622;SDS011;11478;51.094;7.030;2022-11-03T05:24:45;14.35;;;2.97;;
22622;SDS011;11478;51.094;7.030;2022-11-03T05:27:14;10.80;;;3.38;;
22622;SDS011;11478;51.094;7.030;2022-11-03T05:29:49;11.45;;;2.80;;
22622;SDS011;11478;51.094;7.030;2022-11-03T05:32:18;12.95;;;2.67;;
22622;SDS011;11478;51.094;7.030;2022-11-03T05:35:18;13.13;;;2.63;;
22622;SDS011;11478;51.094;7.030;2022-11-03T05:37:51;11.00;;;2.70;;
22622;SDS011;11478;51.094;7.030;2022-11-03T05:40:25;13.48;;;3.08;;
22622;SDS011;11478;51.094;7.030;2022-11-03T05:43:00;12.45;;;3.03;;
22622;SDS011;11478;51.094;7.030;2022-11-03T05:45:40;13.23;;;2.97;;
22622;SDS011;11478;51.094;7.030;2022-11-03T05:48:16;16.52;;;3.30;;
22622;SDS011;11478;51.094;7.030;2022-11-03T05:50:47;9.50;;;2.85;;
22622;SDS011;11478;51.094;7.030;2022-11-03T05:53:27;11.57;;;2.92;;
22622;SDS011;11478;51.094;7.030;2022-11-03T05:56:05;9.65;;;2.80;;
22622;SDS011;11478;51.094;7.030;2022-11-03T05:58:36;13.13;;;3.15;;
22622;SDS011;11478;51.094;7.030;2022-11-03T06:01:49;10.10;;;3.08;;
22622;SDS011;11478;51.094;7.030;2022-11-03T06:07:22;10.73;;;3.05;;
22622;SDS011;11478;51.094;7.030;2022-11-03T06:09:51;13.88;;;2.92;;
22622;SDS011;11478;51.094;7.030;2022-11-03T06:12:18;14.07;;;3.03;;
22622;SDS011;11478;51.094;7.030;2022-11-03T06:15:00;11.60;;;2.83;;
22622;SDS011;11478;51.094;7.030;2022-11-03T06:20:17;14.18;;;3.15;;
22622;SDS011;11478;51.094;7.030;2022-11-03T06:22:46;12.05;;;3.42;;
22622;SDS011;11478;51.094;7.030;2022-11-03T06:25:27;13.05;;;3.13;;
22622;SDS011;11478;51.094;7.030;2022-11-03T06:27:54;12.60;;;3.20;;
22622;SDS011;11478;51.094;7.030;2022-11-03T06:30:34;14.25;;;3.28;;
22622;SDS011;11478;51.094;7.030;2022-11-03T06:33:13;9.93;;;3.05;;
22622;SDS011;11478;51.094;7.030;2022-11-03T06:35:54;13.52;;;3.28;;
22622;SDS011;11478;51.094;7.030;2022-11-03T06:41:30;10.48;;;2.60;;
22622;SDS011;11478;51.094;7.030;2022-11-03T06:44:00;10.02;;;2.78;;
22622;SDS011;11478;51.094;7.030;2022-11-03T06:46:49;10.25;;;3.13;;
22622;SDS011;11478;51.094;7.030;2022-11-03T06:49:39;11.27;;;2.97;;
22622;SDS011;11478;51.094;7.030;2022-11-03T06:57:47;15.07;;;3.38;;
22622;SDS011;11478;51.094;7.030;2022-11-03T07:00:26;11.05;;;2.92;;
22622;SDS011;11478;51.094;7.030;2022-11-03T07:05:34;15.18;;;3.08;;
22622;SDS011;11478;51.094;7.030;2022-11-03T07:11:21;12.63;;;3.00;;
22622;SDS011;11478;51.094;7.030;2022-11-03T07:14:25;12.70;;;3.08;;
22622;SDS011;11478;51.094;7.030;2022-11-03T07:17:01;11.75;;;3.05;;
22622;SDS011;11478;51.094;7.030;2022-11-03T07:19:36;12.52;;;2.85;;
22622;SDS011;11478;51.094;7.030;2022-11-03T07:37:37;15.57;;;3.33;;
22622;SDS011;11478;51.094;7.030;2022-11-03T07:40:04;10.18;;;3.08;;
22622;SDS011;11478;51.094;7.030;2022-11-03T07:42:39;11.35;;;2.83;;
22622;SDS011;11478;51.094;7.030;2022-11-03T07:48:27;12.23;;;2.88;;
22622;SDS011;11478;51.094;7.030;2022-11-03T07:51:20;12.00;;;3.30;;
22622;SDS011;11478;51.094;7.030;2022-11-03T07:56:38;11.40;;;2.87;;
22622;SDS011;11478;51.094;7.030;2022-11-03T08:04:20;14.38;;;3.00;;
22622;SDS011;11478;51.094;7.030;2022-11-03T08:07:05;12.63;;;3.30;;
22622;SDS011;11478;51.094;7.030;2022-11-03T08:09:31;14.73;;;3.00;;
22622;SDS011;11478;51.094;7.030;2022-11-03T08:11:57;11.25;;;3.08;;
22622;SDS011;11478;51.094;7.030;2022-11-03T08:14:25;13.65;;;3.10;;
22622;SDS011;11478;51.094;7.030;2022-11-03T08:17:02;11.32;;;2.83;;
22622;SDS011;11478;51.094;7.030;2022-11-03T08:22:02;9.70;;;3.00;;
22622;SDS011;11478;51.094;7.030;2022-11-03T08:24:38;9.85;;;3.08;;
22622;SDS011;11478;51.094;7.030;2022-11-03T08:27:21;12.48;;;3.00;;
22622;SDS011;11478;51.094;7.030;2022-11-03T08:29:50;12.63;;;3.05;;
22622;SDS011;11478;51.094;7.030;2022-11-03T08:32:15;12.88;;;3.10;;
22622;SDS011;11478;51.094;7.030;2022-11-03T08:37:43;8.18;;;2.70;;
22622;SDS011;11478;51.094;7.030;2022-11-03T08:42:39;11.77;;;3.10;;
22622;SDS011;11478;51.094;7.030;2022-11-03T08:54:27;11.95;;;2.60;;
22622;SDS011;11478;51.094;7.030;2022-11-03T08:56:53;12.75;;;2.78;;
22622;SDS011;11478;51.094;7.030;2022-11-03T08:59:20;15.98;;;2.80;;
22622;SDS011;11478;51.094;7.030;2022-11-03T09:01:48;9.68;;;3.05;;
22622;SDS011;11478;51.094;7.030;2022-11-03T09:04:15;8.80;;;2.70;;
22622;SDS011;11478;51.094;7.030;2022-11-03T09:06:43;14.02;;;3.70;;
22622;SDS011;11478;51.094;7.030;2022-11-03T09:09:16;8.80;;;2.47;;
22622;SDS011;11478;51.094;7.030;2022-11-03T09:11:45;12.45;;;2.60;;
22622;SDS011;11478;51.094;7.030;2022-11-03T09:14:12;9.77;;;2.67;;
22622;SDS011;11478;51.094;7.030;2022-11-03T09:16:41;14.63;;;2.85;;
22622;SDS011;11478;51.094;7.030;2022-11-03T09:19:15;8.77;;;2.55;;
22622;SDS011;11478;51.094;7.030;2022-11-03T09:21:51;12.73;;;2.90;;
22622;SDS011;11478;51.094;7.030;2022-11-03T09:24:18;8.25;;;2.50;;
22622;SDS011;11478;51.094;7.030;2022-11-03T09:26:44;10.55;;;2.38;;
22622;SDS011;11478;51.094;7.030;2022-11-03T09:29:12;10.13;;;2.97;;
22622;SDS011;11478;51.094;7.030;2022-11-03T09:31:38;11.43;;;2.45;;
22622;SDS011;11478;51.094;7.030;2022-11-03T09:34:06;10.20;;;2.63;;
22622;SDS011;11478;51.094;7.030;2022-11-03T09:36:35;13.02;;;2.80;;
22622;SDS011;11478;51.094;7.030;2022-11-03T09:41:40;9.98;;;2.08;;
22622;SDS011;11478;51.094;7.030;2022-11-03T09:44:18;9.55;;;2.67;;
22622;SDS011;11478;51.094;7.030;2022-11-03T09:46:44;10.70;;;2.63;;
22622;SDS011;11478;51.094;7.030;2022-11-03T09:49:32;9.68;;;2.40;;
22622;SDS011;11478;51.094;7.030;2022-11-03T09:51:59;11.95;;;2.70;;
22622;SDS011;11478;51.094;7.030;2022-11-03T09:54:38;15.00;;;2.60;;
22622;SDS011;11478;51.094;7.030;2022-11-03T10:20:28;8.13;;;2.47;;
22622;SDS011;11478;51.094;7.030;2022-11-03T10:22:56;11.52;;;2.38;;
22622;SDS011;11478;51.094;7.030;2022-11-03T10:25:41;11.23;;;2.53;;
22622;SDS011;11478;51.094;7.030;2022-11-03T10:28:23;8.38;;;2.10;;
22622;SDS011;11478;51.094;7.030;2022-11-03T10:35:59;10.52;;;2.40;;
22622;SDS011;11478;51.094;7.030;2022-11-03T10:38:29;10.18;;;2.40;;
22622;SDS011;11478;51.094;7.030;2022-11-03T10:49:30;6.50;;;1.92;;
22622;SDS011;11478;51.094;7.030;2022-11-03T10:52:06;12.13;;;2.22;;
22622;SDS011;11478;51.094;7.030;2022-11-03T10:54:51;10.35;;;2.25;;
22622;SDS011;11478;51.094;7.030;2022-11-03T10:57:22;10.82;;;2.55;;
22622;SDS011;11478;51.094;7.030;2022-11-03T10:59:50;9.85;;;2.25;;
22622;SDS011;11478;51.094;7.030;2022-11-03T11:02:31;10.10;;;2.50;;
22622;SDS011;11478;51.094;7.030;2022-11-03T11:05:19;7.57;;;2.10;;
22622;SDS011;11478;51.094;7.030;2022-11-03T11:07:51;10.93;;;2.50;;
22622;SDS011;11478;51.094;7.030;2022-11-03T11:10:19;6.82;;;2.33;;
22622;SDS011;11478;51.094;7.030;2022-11-03T11:15:48;12.40;;;2.40;;
22622;SDS011;11478;51.094;7.030;2022-11-03T11:21:00;7.55;;;2.15;;
22622;SDS011;11478;51.094;7.030;2022-11-03T11:23:49;5.18;;;1.92;;
22622;SDS011;11478;51.094;7.030;2022-11-03T11:29:38;7.20;;;2.05;;
22622;SDS011;11478;51.094;7.030;2022-11-03T11:41:09;8.07;;;2.15;;
22622;SDS011;11478;51.094;7.030;2022-11-03T11:43:40;10.38;;;2.33;;
22622;SDS011;11478;51.094;7.030;2022-11-03T11:51:35;8.00;;;1.73;;
22622;SDS011;11478;51.094;7.030;2022-11-03T11:54:08;6.53;;;2.40;;
22622;SDS011;11478;51.094;7.030;2022-11-03T11:56:40;5.35;;;1.85;;
22622;SDS011;11478;51.094;7.030;2022-11-03T11:59:14;8.77;;;2.30;;
22622;SDS011;11478;51.094;7.030;2022-11-03T12:01:49;9.25;;;2.00;;
22622;SDS011;11478;51.094;7.030;2022-11-03T12:06:49;9.07;;;2.20;;
22622;SDS011;11478;51.094;7.030;2022-11-03T12:09:17;6.82;;;2.08;;
22622;SDS011;11478;51.094;7.030;2022-11-03T12:11:46;9.23;;;1.95;;
22622;SDS011;11478;51.094;7.030;2022-11-03T12:14:22;9.30;;;2.17;;
22622;SDS011;11478;51.094;7.030;2022-11-03T12:24:51;6.88;;;2.00;;
22622;SDS011;11478;51.094;7.030;2022-11-03T12:27:19;6.70;;;2.33;;
22622;SDS011;11478;51.094;7.030;2022-11-03T12:30:12;9.45;;;2.28;;
22622;SDS011;11478;51.094;7.030;2022-11-03T12:32:42;10.50;;;2.60;;
22622;SDS011;11478;51.094;7.030;2022-11-03T12:35:11;8.07;;;2.05;;
22622;SDS011;11478;51.094;7.030;2022-11-03T12:37:38;6.72;;;1.85;;
22622;SDS011;11478;51.094;7.030;2022-11-03T12:40:05;7.80;;;2.28;;
22622;SDS011;11478;51.094;7.030;2022-11-03T12:42:33;6.35;;;2.17;;
22622;SDS011;11478;51.094;7.030;2022-11-03T12:44:59;6.82;;;1.83;;
22622;SDS011;11478;51.094;7.030;2022-11-03T12:50:31;6.53;;;2.17;;
22622;SDS011;11478;51.094;7.030;2022-11-03T12:53:02;7.38;;;2.60;;
22622;SDS011;11478;51.094;7.030;2022-11-03T12:55:28;6.57;;;2.10;;
22622;SDS011;11478;51.094;7.030;2022-11-03T12:57:54;9.30;;;2.45;;
22622;SDS011;11478;51.094;7.030;2022-11-03T13:00:20;6.35;;;2.30;;
22622;SDS011;11478;51.094;7.030;2022-11-03T13:02:47;8.23;;;2.47;;
22622;SDS011;11478;51.094;7.030;2022-11-03T13:05:13;8.23;;;2.58;;
22622;SDS011;11478;51.094;7.030;2022-11-03T13:07:40;8.40;;;2.60;;
22622;SDS011;11478;51.094;7.030;2022-11-03T13:10:07;6.35;;;2.33;;
22622;SDS011;11478;51.094;7.030;2022-11-03T13:12:38;5.70;;;2.17;;
22622;SDS011;11478;51.094;7.030;2022-11-03T13:15:06;7.72;;;2.13;;
22622;SDS011;11478;51.094;7.030;2022-11-03T13:17:34;6.88;;;2.40;;
22622;SDS011;11478;51.094;7.030;2022-11-03T13:20:05;8.18;;;2.70;;
22622;SDS011;11478;51.094;7.030;2022-11-03T13:22:32;8.27;;;2.10;;
22622;SDS011;11478;51.094;7.030;2022-11-03T13:24:58;8.20;;;2.58;;
22622;SDS011;11478;51.094;7.030;2022-11-03T13:27:23;10.85;;;2.75;;
22622;SDS011;11478;51.094;7.030;2022-11-03T13:30:03;6.70;;;2.33;;
22622;SDS011;11478;51.094;7.030;2022-11-03T13:32:30;10.50;;;2.47;;
22622;SDS011;11478;51.094;7.030;2022-11-03T13:34:57;7.07;;;2.60;;
22622;SDS011;11478;51.094;7.030;2022-11-03T13:37:23;8.82;;;2.42;;
22622;SDS011;11478;51.094;7.030;2022-11-03T13:39:51;9.10;;;2.45;;
22622;SDS011;11478;51.094;7.030;2022-11-03T13:42:17;5.55;;;2.17;;
22622;SDS011;11478;51.094;7.030;2022-11-03T13:44:50;8.80;;;2.70;;
22622;SDS011;11478;51.094;7.030;2022-11-03T13:47:16;9.80;;;2.63;;
22622;SDS011;11478;51.094;7.030;2022-11-03T13:49:50;8.20;;;2.45;;
22622;SDS011;11478;51.094;7.030;2022-11-03T13:52:20;9.30;;;2.40;;
22622;SDS011;11478;51.094;7.030;2022-11-03T13:54:54;8.80;;;3.40;;
22622;SDS011;11478;51.094;7.030;2022-11-03T13:57:20;6.38;;;2.60;;
22622;SDS011;11478;51.094;7.030;2022-11-03T13:59:48;5.35;;;2.05;;
22622;SDS011;11478;51.094;7.030;2022-11-03T14:02:14;6.28;;;2.30;;
22622;SDS011;11478;51.094;7.030;2022-11-03T14:04:43;7.82;;;2.33;;
22622;SDS011;11478;51.094;7.030;2022-11-03T14:07:08;5.93;;;2.78;;
22622;SDS011;11478;51.094;7.030;2022-11-03T14:09:41;7.22;;;2.42;;
22622;SDS011;11478;51.094;7.030;2022-11-03T14:12:06;10.25;;;2.80;;
22622;SDS011;11478;51.094;7.030;2022-11-03T14:17:17;8.13;;;3.92;;
22622;SDS011;11478;51.094;7.030;2022-11-03T14:19:43;9.35;;;3.20;;
22622;SDS011;11478;51.094;7.030;2022-11-03T14:22:09;5.47;;;2.20;;
22622;SDS011;11478;51.094;7.030;2022-11-03T14:24:37;4.63;;;2.58;;
22622;SDS011;11478;51.094;7.030;2022-11-03T14:27:03;6.68;;;2.67;;
22622;SDS011;11478;51.094;7.030;2022-11-03T14:29:29;7.47;;;2.60;;
22622;SDS011;11478;51.094;7.030;2022-11-03T14:31:58;7.88;;;2.83;;
22622;SDS011;11478;51.094;7.030;2022-11-03T14:34:24;7.20;;;2.47;;
22622;SDS011;11478;51.094;7.030;2022-11-03T14:36:50;7.00;;;2.40;;
22622;SDS011;11478;51.094;7.030;2022-11-03T14:39:22;6.18;;;2.35;;
22622;SDS011;11478;51.094;7.030;2022-11-03T14:41:47;7.18;;;2.53;;
22622;SDS011;11478;51.094;7.030;2022-11-03T14:44:32;8.90;;;2.78;;
22622;SDS011;11478;51.094;7.030;2022-11-03T14:47:03;6.10;;;2.10;;
22622;SDS011;11478;51.094;7.030;2022-11-03T14:49:30;6.38;;;2.75;;
22622;SDS011;11478;51.094;7.030;2022-11-03T14:51:59;7.88;;;2.60;;
22622;SDS011;11478;51.094;7.030;2022-11-03T14:54:31;7.28;;;2.50;;
22622;SDS011;11478;51.094;7.030;2022-11-03T14:56:57;6.43;;;2.33;;
22622;SDS011;11478;51.094;7.030;2022-11-03T14:59:23;7.80;;;2.30;;
22622;SDS011;11478;51.094;7.030;2022-11-03T15:01:49;10.63;;;2.55;;
22622;SDS011;11478;51.094;7.030;2022-11-03T15:04:15;8.60;;;3.17;;
22622;SDS011;11478;51.094;7.030;2022-11-03T15:09:24;8.90;;;2.75;;
22622;SDS011;11478;51.094;7.030;2022-11-03T15:11:50;6.35;;;2.85;;
22622;SDS011;11478;51.094;7.030;2022-11-03T15:14:19;7.88;;;2.80;;
22622;SDS011;11478;51.094;7.030;2022-11-03T15:16:45;11.43;;;2.95;;
22622;SDS011;11478;51.094;7.030;2022-11-03T15:19:11;7.47;;;2.45;;
22622;SDS011;11478;51.094;7.030;2022-11-03T15:24:07;8.60;;;3.00;;
22622;SDS011;11478;51.094;7.030;2022-11-03T15:26:33;9.95;;;3.47;;
22622;SDS011;11478;51.094;7.030;2022-11-03T15:28:59;11.75;;;2.92;;
22622;SDS011;11478;51.094;7.030;2022-11-03T15:31:25;7.10;;;3.20;;
22622;SDS011;11478;51.094;7.030;2022-11-03T15:33:51;7.68;;;3.40;;
22622;SDS011;11478;51.094;7.030;2022-11-03T15:36:19;5.85;;;3.00;;
22622;SDS011;11478;51.094;7.030;2022-11-03T15:38:46;9.18;;;3.47;;
22622;SDS011;11478;51.094;7.030;2022-11-03T15:41:20;7.85;;;3.30;;
22622;SDS011;11478;51.094;7.030;2022-11-03T15:46:17;10.05;;;3.00;;
22622;SDS011;11478;51.094;7.030;2022-11-03T15:48:44;8.20;;;3.50;;
22622;SDS011;11478;51.094;7.030;2022-11-03T15:51:11;43.50;;;20.00;;
22622;SDS011;11478;51.094;7.030;2022-11-03T15:53:37;38.55;;;19.95;;
22622;SDS011;11478;51.094;7.030;2022-11-03T15:56:06;8.55;;;5.85;;
22622;SDS011;11478;51.094;7.030;2022-11-03T15:58:32;7.82;;;3.53;;
22622;SDS011;11478;51.094;7.030;2022-11-03T16:01:03;8.15;;;3.40;;
22622;SDS011;11478;51.094;7.030;2022-11-03T16:03:30;7.03;;;3.38;;
22622;SDS011;11478;51.094;7.030;2022-11-03T16:05:57;7.82;;;3.45;;
22622;SDS011;11478;51.094;7.030;2022-11-03T16:08:23;8.63;;;3.90;;
22622;SDS011;11478;51.094;7.030;2022-11-03T16:10:49;8.65;;;3.53;;
22622;SDS011;11478;51.094;7.030;2022-11-03T16:15:51;8.38;;;3.55;;
22622;SDS011;11478;51.094;7.030;2022-11-03T16:18:18;9.52;;;3.63;;
22622;SDS011;11478;51.094;7.030;2022-11-03T16:20:48;7.38;;;3.30;;
22622;SDS011;11478;51.094;7.030;2022-11-03T16:23:14;8.40;;;3.92;;
22622;SDS011;11478;51.094;7.030;2022-11-03T16:25:42;8.32;;;4.32;;
22622;SDS011;11478;51.094;7.030;2022-11-03T16:28:16;10.68;;;4.00;;
22622;SDS011;11478;51.094;7.030;2022-11-03T16:30:49;6.47;;;3.92;;
22622;SDS011;11478;51.094;7.030;2022-11-03T16:33:18;6.70;;;4.10;;
22622;SDS011;11478;51.094;7.030;2022-11-03T16:35:51;8.70;;;4.03;;
22622;SDS011;11478;51.094;7.030;2022-11-03T16:38:47;7.90;;;4.35;;
22622;SDS011;11478;51.094;7.030;2022-11-03T16:43:42;10.20;;;4.63;;
22622;SDS011;11478;51.094;7.030;2022-11-03T16:51:11;8.13;;;4.45;;
22622;SDS011;11478;51.094;7.030;2022-11-03T16:53:38;10.25;;;5.03;;
22622;SDS011;11478;51.094;7.030;2022-11-03T16:56:06;9.00;;;4.20;;
22622;SDS011;11478;51.094;7.030;2022-11-03T16:58:32;10.55;;;4.38;;
22622;SDS011;11478;51.094;7.030;2022-11-03T17:01:14;9.48;;;4.55;;
22622;SDS011;11478;51.094;7.030;2022-11-03T17:03:40;10.35;;;4.18;;
22622;SDS011;11478;51.094;7.030;2022-11-03T17:06:08;10.45;;;4.63;;
22622;SDS011;11478;51.094;7.030;2022-11-03T17:08:34;8.40;;;3.60;;
22622;SDS011;11478;51.094;7.030;2022-11-03T17:11:02;9.07;;;4.30;;
22622;SDS011;11478;51.094;7.030;2022-11-03T17:13:28;12.30;;;4.90;;
22622;SDS011;11478;51.094;7.030;2022-11-03T17:15:55;10.90;;;3.90;;
22622;SDS011;11478;51.094;7.030;2022-11-03T17:18:21;9.70;;;4.70;;
22622;SDS011;11478;51.094;7.030;2022-11-03T17:20:57;6.78;;;4.05;;
22622;SDS011;11478;51.094;7.030;2022-11-03T17:23:23;9.27;;;4.15;;
22622;SDS011;11478;51.094;7.030;2022-11-03T17:25:50;9.88;;;4.60;;
22622;SDS011;11478;51.094;7.030;2022-11-03T17:28:16;9.98;;;4.22;;
22622;SDS011;11478;51.094;7.030;2022-11-03T17:30:42;7.03;;;4.40;;
22622;SDS011;11478;51.094;7.030;2022-11-03T17:33:11;7.50;;;4.80;;
22622;SDS011;11478;51.094;7.030;2022-11-03T17:35:40;10.85;;;4.35;;
22622;SDS011;11478;51.094;7.030;2022-11-03T18:07:37;9.40;;;6.72;;
22622;SDS011;11478;51.094;7.030;2022-11-03T18:10:06;9.05;;;5.55;;
22622;SDS011;11478;51.094;7.030;2022-11-03T18:12:38;12.00;;;6.85;;
22622;SDS011;11478;51.094;7.030;2022-11-03T18:15:28;15.30;;;8.88;;
22622;SDS011;11478;51.094;7.030;2022-11-03T18:18:07;9.77;;;5.45;;
22622;SDS011;11478;51.094;7.030;2022-11-03T18:20:51;11.65;;;5.75;;
22622;SDS011;11478;51.094;7.030;2022-11-03T18:23:20;12.10;;;6.35;;
22622;SDS011;11478;51.094;7.030;2022-11-03T18:28:32;11.60;;;5.90;;
22622;SDS011;11478;51.094;7.030;2022-11-03T18:34:20;19.45;;;10.98;;
22622;SDS011;11478;51.094;7.030;2022-11-03T18:37:01;9.32;;;5.60;;
22622;SDS011;11478;51.094;7.030;2022-11-03T18:39:35;12.00;;;7.07;;
22622;SDS011;11478;51.094;7.030;2022-11-03T18:42:13;10.68;;;5.80;;
22622;SDS011;11478;51.094;7.030;2022-11-03T18:44:42;13.27;;;6.10;;
22622;SDS011;11478;51.094;7.030;2022-11-03T18:47:09;10.57;;;5.53;;
22622;SDS011;11478;51.094;7.030;2022-11-03T18:49:38;11.88;;;6.07;;
22622;SDS011;11478;51.094;7.030;2022-11-03T18:52:14;8.93;;;5.72;;
22622;SDS011;11478;51.094;7.030;2022-11-03T18:54:43;11.65;;;5.80;;
22622;SDS011;11478;51.094;7.030;2022-11-03T18:57:20;14.00;;;6.20;;
22622;SDS011;11478;51.094;7.030;2022-11-03T18:59:54;12.15;;;6.15;;
22622;SDS011;11478;51.094;7.030;2022-11-03T19:02:34;11.18;;;6.20;;
22622;SDS011;11478;51.094;7.030;2022-11-03T19:05:00;10.77;;;5.70;;
22622;SDS011;11478;51.094;7.030;2022-11-03T19:07:27;8.10;;;5.40;;
22622;SDS011;11478;51.094;7.030;2022-11-03T19:10:05;10.13;;;5.28;;
22622;SDS011;11478;51.094;7.030;2022-11-03T19:12:40;11.68;;;6.13;;
22622;SDS011;11478;51.094;7.030;2022-11-03T19:15:18;10.50;;;5.43;;